sensor_id;sensor_type;location;lat;lon;timestamp;P1;durP1;ratioP1;P2;durP2;ratioP2
7316;SDS011;3699;51.462;6.696;2023-10-08T00:01:37;9.70;;;4.70;;
7316;SDS011;3699;51.462;6.696;2023-10-08T00:04:07;12.73;;;5.20;;
7316;SDS011;3699;51.462;6.696;2023-10-08T00:06:35;10.73;;;5.30;;
7316;SDS011;3699;51.462;6.696;2023-10-08T00:09:03;7.50;;;5.17;;
7316;SDS011;3699;51.462;6.696;2023-10-08T00:11:35;9.43;;;5.23;;
7316;SDS011;3699;51.462;6.696;2023-10-08T00:14:02;9.97;;;5.03;;
7316;SDS011;3699;51.462;6.696;2023-10-08T00:16:33;9.00;;;5.10;;
7316;SDS011;3699;51.462;6.696;2023-10-08T00:19:03;9.23;;;4.90;;
7316;SDS011;3699;51.462;6.696;2023-10-08T00:21:33;8.53;;;5.23;;
7316;SDS011;3699;51.462;6.696;2023-10-08T00:24:02;10.37;;;4.80;;
7316;SDS011;3699;51.462;6.696;2023-10-08T00:26:32;16.17;;;4.90;;
7316;SDS011;3699;51.462;6.696;2023-10-08T00:29:02;10.97;;;4.93;;
7316;SDS011;3699;51.462;6.696;2023-10-08T00:31:31;9.77;;;5.00;;
7316;SDS011;3699;51.462;6.696;2023-10-08T00:34:03;8.07;;;5.10;;
7316;SDS011;3699;51.462;6.696;2023-10-08T00:36:31;13.37;;;5.30;;
7316;SDS011;3699;51.462;6.696;2023-10-08T00:38:59;10.23;;;5.83;;
7316;SDS011;3699;51.462;6.696;2023-10-08T00:41:26;12.87;;;5.63;;
7316;SDS011;3699;51.462;6.696;2023-10-08T00:43:57;10.77;;;4.70;;
7316;SDS011;3699;51.462;6.696;2023-10-08T00:46:26;5.47;;;4.00;;
7316;SDS011;3699;51.462;6.696;2023-10-08T00:48:58;7.90;;;4.40;;
7316;SDS011;3699;51.462;6.696;2023-10-08T00:51:49;7.97;;;5.10;;
7316;SDS011;3699;51.462;6.696;2023-10-08T00:54:26;10.47;;;5.37;;
7316;SDS011;3699;51.462;6.696;2023-10-08T00:56:58;10.20;;;5.03;;
7316;SDS011;3699;51.462;6.696;2023-10-08T00:59:30;13.63;;;4.90;;
7316;SDS011;3699;51.462;6.696;2023-10-08T01:02:08;6.37;;;4.47;;
7316;SDS011;3699;51.462;6.696;2023-10-08T01:04:40;9.77;;;5.77;;
7316;SDS011;3699;51.462;6.696;2023-10-08T01:07:09;8.47;;;5.27;;
7316;SDS011;3699;51.462;6.696;2023-10-08T01:09:38;8.43;;;4.50;;
7316;SDS011;3699;51.462;6.696;2023-10-08T01:12:08;7.87;;;5.17;;
7316;SDS011;3699;51.462;6.696;2023-10-08T01:14:38;7.17;;;4.73;;
7316;SDS011;3699;51.462;6.696;2023-10-08T01:17:09;12.37;;;5.60;;
7316;SDS011;3699;51.462;6.696;2023-10-08T01:19:39;9.57;;;5.53;;
7316;SDS011;3699;51.462;6.696;2023-10-08T01:22:09;13.77;;;6.20;;
7316;SDS011;3699;51.462;6.696;2023-10-08T01:24:43;9.60;;;5.10;;
7316;SDS011;3699;51.462;6.696;2023-10-08T01:27:11;10.07;;;5.77;;
7316;SDS011;3699;51.462;6.696;2023-10-08T01:29:38;13.97;;;5.30;;
7316;SDS011;3699;51.462;6.696;2023-10-08T01:32:08;8.67;;;5.07;;
7316;SDS011;3699;51.462;6.696;2023-10-08T01:34:36;12.90;;;5.40;;
7316;SDS011;3699;51.462;6.696;2023-10-08T01:37:04;9.33;;;5.43;;
7316;SDS011;3699;51.462;6.696;2023-10-08T01:39:36;12.33;;;5.70;;
7316;SDS011;3699;51.462;6.696;2023-10-08T01:42:03;8.47;;;4.53;;
7316;SDS011;3699;51.462;6.696;2023-10-08T01:44:32;9.50;;;5.40;;
7316;SDS011;3699;51.462;6.696;2023-10-08T01:47:00;8.80;;;5.27;;
7316;SDS011;3699;51.462;6.696;2023-10-08T01:49:30;8.30;;;5.33;;
7316;SDS011;3699;51.462;6.696;2023-10-08T01:51:58;11.67;;;6.17;;
7316;SDS011;3699;51.462;6.696;2023-10-08T01:54:32;9.70;;;5.30;;
7316;SDS011;3699;51.462;6.696;2023-10-08T01:57:02;12.37;;;5.83;;
7316;SDS011;3699;51.462;6.696;2023-10-08T01:59:30;12.40;;;6.00;;
7316;SDS011;3699;51.462;6.696;2023-10-08T02:01:58;10.97;;;5.40;;
7316;SDS011;3699;51.462;6.696;2023-10-08T02:04:25;9.77;;;5.50;;
7316;SDS011;3699;51.462;6.696;2023-10-08T02:06:51;13.83;;;5.80;;
7316;SDS011;3699;51.462;6.696;2023-10-08T02:09:18;11.50;;;4.97;;
7316;SDS011;3699;51.462;6.696;2023-10-08T02:11:51;10.67;;;5.63;;
7316;SDS011;3699;51.462;6.696;2023-10-08T02:14:20;12.03;;;6.03;;
7316;SDS011;3699;51.462;6.696;2023-10-08T02:16:48;14.80;;;5.53;;
7316;SDS011;3699;51.462;6.696;2023-10-08T02:19:17;12.67;;;5.40;;
7316;SDS011;3699;51.462;6.696;2023-10-08T02:21:51;13.27;;;5.50;;
7316;SDS011;3699;51.462;6.696;2023-10-08T02:24:19;8.20;;;4.60;;
7316;SDS011;3699;51.462;6.696;2023-10-08T02:26:46;14.40;;;4.97;;
7316;SDS011;3699;51.462;6.696;2023-10-08T02:29:13;10.27;;;5.07;;
7316;SDS011;3699;51.462;6.696;2023-10-08T02:31:41;12.33;;;4.70;;
7316;SDS011;3699;51.462;6.696;2023-10-08T02:34:08;11.63;;;4.90;;
7316;SDS011;3699;51.462;6.696;2023-10-08T02:36:37;12.57;;;5.10;;
7316;SDS011;3699;51.462;6.696;2023-10-08T02:39:05;9.70;;;5.60;;
7316;SDS011;3699;51.462;6.696;2023-10-08T02:41:38;13.27;;;5.30;;
7316;SDS011;3699;51.462;6.696;2023-10-08T02:44:06;11.63;;;5.27;;
7316;SDS011;3699;51.462;6.696;2023-10-08T02:46:37;10.57;;;6.30;;
7316;SDS011;3699;51.462;6.696;2023-10-08T02:49:07;10.40;;;5.40;;
7316;SDS011;3699;51.462;6.696;2023-10-08T02:51:36;10.63;;;5.67;;
7316;SDS011;3699;51.462;6.696;2023-10-08T02:54:04;10.40;;;5.10;;
7316;SDS011;3699;51.462;6.696;2023-10-08T02:56:31;7.83;;;5.50;;
7316;SDS011;3699;51.462;6.696;2023-10-08T02:58:58;8.70;;;4.73;;
7316;SDS011;3699;51.462;6.696;2023-10-08T03:01:25;9.57;;;5.10;;
7316;SDS011;3699;51.462;6.696;2023-10-08T03:03:52;9.63;;;5.03;;
7316;SDS011;3699;51.462;6.696;2023-10-08T03:06:28;13.20;;;5.23;;
7316;SDS011;3699;51.462;6.696;2023-10-08T03:08:57;10.47;;;5.20;;
7316;SDS011;3699;51.462;6.696;2023-10-08T03:11:29;8.43;;;5.17;;
7316;SDS011;3699;51.462;6.696;2023-10-08T03:13:56;10.87;;;5.33;;
7316;SDS011;3699;51.462;6.696;2023-10-08T03:16:23;10.47;;;5.30;;
7316;SDS011;3699;51.462;6.696;2023-10-08T03:18:54;9.00;;;4.70;;
7316;SDS011;3699;51.462;6.696;2023-10-08T03:21:22;9.13;;;4.93;;
7316;SDS011;3699;51.462;6.696;2023-10-08T03:24:10;11.23;;;5.77;;
7316;SDS011;3699;51.462;6.696;2023-10-08T03:26:54;16.07;;;4.90;;
7316;SDS011;3699;51.462;6.696;2023-10-08T03:29:30;12.10;;;4.67;;
7316;SDS011;3699;51.462;6.696;2023-10-08T03:31:58;12.97;;;5.30;;
7316;SDS011;3699;51.462;6.696;2023-10-08T03:34:31;6.63;;;4.40;;
7316;SDS011;3699;51.462;6.696;2023-10-08T03:36:59;11.27;;;5.10;;
7316;SDS011;3699;51.462;6.696;2023-10-08T03:39:32;8.33;;;4.50;;
7316;SDS011;3699;51.462;6.696;2023-10-08T03:42:18;9.60;;;4.40;;
7316;SDS011;3699;51.462;6.696;2023-10-08T03:44:47;13.80;;;4.87;;
7316;SDS011;3699;51.462;6.696;2023-10-08T03:47:16;14.33;;;6.40;;
7316;SDS011;3699;51.462;6.696;2023-10-08T03:49:44;7.10;;;4.90;;
7316;SDS011;3699;51.462;6.696;2023-10-08T03:52:11;9.67;;;5.53;;
7316;SDS011;3699;51.462;6.696;2023-10-08T03:54:40;10.60;;;4.90;;
7316;SDS011;3699;51.462;6.696;2023-10-08T03:57:13;10.13;;;5.27;;
7316;SDS011;3699;51.462;6.696;2023-10-08T03:59:44;8.37;;;4.53;;
7316;SDS011;3699;51.462;6.696;2023-10-08T04:02:13;11.00;;;5.03;;
7316;SDS011;3699;51.462;6.696;2023-10-08T04:04:48;9.87;;;5.07;;
7316;SDS011;3699;51.462;6.696;2023-10-08T04:07:16;12.03;;;5.27;;
7316;SDS011;3699;51.462;6.696;2023-10-08T04:10:06;7.63;;;4.67;;
7316;SDS011;3699;51.462;6.696;2023-10-08T04:13:04;14.83;;;6.00;;
7316;SDS011;3699;51.462;6.696;2023-10-08T04:15:33;9.03;;;5.70;;
7316;SDS011;3699;51.462;6.696;2023-10-08T04:18:05;9.87;;;5.10;;
7316;SDS011;3699;51.462;6.696;2023-10-08T04:20:33;8.93;;;4.63;;
7316;SDS011;3699;51.462;6.696;2023-10-08T04:23:04;11.13;;;5.30;;
7316;SDS011;3699;51.462;6.696;2023-10-08T04:25:40;6.57;;;4.37;;
7316;SDS011;3699;51.462;6.696;2023-10-08T04:28:08;9.70;;;5.10;;
7316;SDS011;3699;51.462;6.696;2023-10-08T04:30:39;7.53;;;4.63;;
7316;SDS011;3699;51.462;6.696;2023-10-08T04:33:08;11.90;;;6.20;;
7316;SDS011;3699;51.462;6.696;2023-10-08T04:35:38;7.60;;;4.73;;
7316;SDS011;3699;51.462;6.696;2023-10-08T04:38:13;13.90;;;4.63;;
7316;SDS011;3699;51.462;6.696;2023-10-08T04:40:44;9.30;;;5.27;;
7316;SDS011;3699;51.462;6.696;2023-10-08T04:43:14;15.10;;;4.90;;
7316;SDS011;3699;51.462;6.696;2023-10-08T04:45:47;9.07;;;4.67;;
7316;SDS011;3699;51.462;6.696;2023-10-08T04:48:15;8.67;;;4.83;;
7316;SDS011;3699;51.462;6.696;2023-10-08T04:50:46;7.87;;;4.40;;
7316;SDS011;3699;51.462;6.696;2023-10-08T04:53:23;9.57;;;5.57;;
7316;SDS011;3699;51.462;6.696;2023-10-08T04:55:57;11.53;;;4.93;;
7316;SDS011;3699;51.462;6.696;2023-10-08T04:58:27;10.97;;;4.63;;
7316;SDS011;3699;51.462;6.696;2023-10-08T05:00:58;8.70;;;4.60;;
7316;SDS011;3699;51.462;6.696;2023-10-08T05:03:42;11.57;;;5.07;;
7316;SDS011;3699;51.462;6.696;2023-10-08T05:06:21;8.40;;;4.97;;
7316;SDS011;3699;51.462;6.696;2023-10-08T05:09:05;7.83;;;4.57;;
7316;SDS011;3699;51.462;6.696;2023-10-08T05:11:38;10.00;;;4.90;;
7316;SDS011;3699;51.462;6.696;2023-10-08T05:14:32;9.43;;;4.87;;
7316;SDS011;3699;51.462;6.696;2023-10-08T05:17:05;9.97;;;4.93;;
7316;SDS011;3699;51.462;6.696;2023-10-08T05:19:35;9.90;;;5.33;;
7316;SDS011;3699;51.462;6.696;2023-10-08T05:22:21;9.23;;;5.33;;
7316;SDS011;3699;51.462;6.696;2023-10-08T05:25:08;12.33;;;4.87;;
7316;SDS011;3699;51.462;6.696;2023-10-08T05:27:51;9.47;;;5.37;;
7316;SDS011;3699;51.462;6.696;2023-10-08T05:30:22;8.13;;;5.30;;
7316;SDS011;3699;51.462;6.696;2023-10-08T05:33:07;9.80;;;5.17;;
7316;SDS011;3699;51.462;6.696;2023-10-08T05:35:48;10.83;;;4.73;;
7316;SDS011;3699;51.462;6.696;2023-10-08T05:38:19;15.20;;;5.80;;
7316;SDS011;3699;51.462;6.696;2023-10-08T05:41:13;9.20;;;5.27;;
7316;SDS011;3699;51.462;6.696;2023-10-08T05:43:55;12.77;;;5.17;;
7316;SDS011;3699;51.462;6.696;2023-10-08T05:46:39;10.30;;;5.40;;
7316;SDS011;3699;51.462;6.696;2023-10-08T05:49:14;16.37;;;5.30;;
7316;SDS011;3699;51.462;6.696;2023-10-08T05:52:07;7.40;;;4.77;;
7316;SDS011;3699;51.462;6.696;2023-10-08T05:54:53;9.50;;;5.43;;
7316;SDS011;3699;51.462;6.696;2023-10-08T05:57:37;12.40;;;5.50;;
7316;SDS011;3699;51.462;6.696;2023-10-08T06:00:07;13.40;;;5.50;;
7316;SDS011;3699;51.462;6.696;2023-10-08T06:02:55;13.17;;;5.13;;
7316;SDS011;3699;51.462;6.696;2023-10-08T06:05:34;16.53;;;5.20;;
7316;SDS011;3699;51.462;6.696;2023-10-08T06:08:12;15.00;;;5.43;;
7316;SDS011;3699;51.462;6.696;2023-10-08T06:10:40;12.40;;;5.70;;
7316;SDS011;3699;51.462;6.696;2023-10-08T06:13:21;8.33;;;4.97;;
7316;SDS011;3699;51.462;6.696;2023-10-08T06:16:10;11.27;;;6.27;;
7316;SDS011;3699;51.462;6.696;2023-10-08T06:18:38;14.33;;;5.90;;
7316;SDS011;3699;51.462;6.696;2023-10-08T06:21:05;12.43;;;5.77;;
7316;SDS011;3699;51.462;6.696;2023-10-08T06:23:34;10.47;;;5.83;;
7316;SDS011;3699;51.462;6.696;2023-10-08T06:26:01;13.37;;;5.57;;
7316;SDS011;3699;51.462;6.696;2023-10-08T06:28:39;10.47;;;5.87;;
7316;SDS011;3699;51.462;6.696;2023-10-08T06:31:07;12.43;;;5.87;;
7316;SDS011;3699;51.462;6.696;2023-10-08T06:33:41;15.77;;;6.13;;
7316;SDS011;3699;51.462;6.696;2023-10-08T06:36:09;10.90;;;5.60;;
7316;SDS011;3699;51.462;6.696;2023-10-08T06:38:41;10.97;;;5.30;;
7316;SDS011;3699;51.462;6.696;2023-10-08T06:41:09;11.27;;;5.70;;
7316;SDS011;3699;51.462;6.696;2023-10-08T06:43:40;10.33;;;5.57;;
7316;SDS011;3699;51.462;6.696;2023-10-08T06:46:11;11.23;;;5.17;;
7316;SDS011;3699;51.462;6.696;2023-10-08T06:48:38;11.87;;;5.97;;
7316;SDS011;3699;51.462;6.696;2023-10-08T06:51:07;12.00;;;5.47;;
7316;SDS011;3699;51.462;6.696;2023-10-08T06:53:38;10.23;;;5.40;;
7316;SDS011;3699;51.462;6.696;2023-10-08T06:56:04;18.50;;;6.60;;
7316;SDS011;3699;51.462;6.696;2023-10-08T06:58:34;11.20;;;6.80;;
7316;SDS011;3699;51.462;6.696;2023-10-08T07:01:01;14.37;;;5.60;;
7316;SDS011;3699;51.462;6.696;2023-10-08T07:03:31;15.20;;;6.50;;
7316;SDS011;3699;51.462;6.696;2023-10-08T07:05:58;9.27;;;5.23;;
7316;SDS011;3699;51.462;6.696;2023-10-08T07:08:27;17.67;;;7.33;;
7316;SDS011;3699;51.462;6.696;2023-10-08T07:10:57;9.77;;;5.53;;
7316;SDS011;3699;51.462;6.696;2023-10-08T07:13:26;14.97;;;6.03;;
7316;SDS011;3699;51.462;6.696;2023-10-08T07:15:54;12.67;;;6.20;;
7316;SDS011;3699;51.462;6.696;2023-10-08T07:18:22;11.87;;;5.83;;
7316;SDS011;3699;51.462;6.696;2023-10-08T07:20:52;16.97;;;7.00;;
7316;SDS011;3699;51.462;6.696;2023-10-08T07:23:21;13.43;;;6.03;;
7316;SDS011;3699;51.462;6.696;2023-10-08T07:25:52;13.77;;;6.17;;
7316;SDS011;3699;51.462;6.696;2023-10-08T07:28:22;14.00;;;6.10;;
7316;SDS011;3699;51.462;6.696;2023-10-08T07:30:50;9.73;;;5.80;;
7316;SDS011;3699;51.462;6.696;2023-10-08T07:33:17;15.33;;;5.63;;
7316;SDS011;3699;51.462;6.696;2023-10-08T07:35:45;10.50;;;6.27;;
7316;SDS011;3699;51.462;6.696;2023-10-08T07:38:38;12.70;;;5.73;;
7316;SDS011;3699;51.462;6.696;2023-10-08T07:41:07;13.43;;;6.13;;
7316;SDS011;3699;51.462;6.696;2023-10-08T07:43:34;10.40;;;6.07;;
7316;SDS011;3699;51.462;6.696;2023-10-08T07:46:00;13.27;;;6.30;;
7316;SDS011;3699;51.462;6.696;2023-10-08T07:48:27;13.43;;;7.17;;
7316;SDS011;3699;51.462;6.696;2023-10-08T07:50:55;22.00;;;8.53;;
7316;SDS011;3699;51.462;6.696;2023-10-08T07:53:23;14.20;;;7.07;;
7316;SDS011;3699;51.462;6.696;2023-10-08T07:56:03;13.30;;;6.70;;
7316;SDS011;3699;51.462;6.696;2023-10-08T07:58:32;15.30;;;6.77;;
7316;SDS011;3699;51.462;6.696;2023-10-08T08:01:02;13.07;;;7.90;;
7316;SDS011;3699;51.462;6.696;2023-10-08T08:03:31;13.33;;;7.07;;
7316;SDS011;3699;51.462;6.696;2023-10-08T08:06:01;16.80;;;6.90;;
7316;SDS011;3699;51.462;6.696;2023-10-08T08:08:31;18.63;;;7.43;;
7316;SDS011;3699;51.462;6.696;2023-10-08T08:10:58;21.53;;;8.37;;
7316;SDS011;3699;51.462;6.696;2023-10-08T08:13:31;16.60;;;8.13;;
7316;SDS011;3699;51.462;6.696;2023-10-08T08:15:58;17.00;;;8.10;;
7316;SDS011;3699;51.462;6.696;2023-10-08T08:18:34;17.13;;;7.60;;
7316;SDS011;3699;51.462;6.696;2023-10-08T08:21:08;18.97;;;9.33;;
7316;SDS011;3699;51.462;6.696;2023-10-08T08:23:39;12.53;;;6.60;;
7316;SDS011;3699;51.462;6.696;2023-10-08T08:26:06;14.47;;;6.50;;
7316;SDS011;3699;51.462;6.696;2023-10-08T08:28:38;17.47;;;8.20;;
7316;SDS011;3699;51.462;6.696;2023-10-08T08:31:05;15.17;;;7.63;;
7316;SDS011;3699;51.462;6.696;2023-10-08T08:33:38;14.30;;;8.40;;
7316;SDS011;3699;51.462;6.696;2023-10-08T08:36:18;17.87;;;7.80;;
7316;SDS011;3699;51.462;6.696;2023-10-08T08:38:46;17.40;;;8.10;;
7316;SDS011;3699;51.462;6.696;2023-10-08T08:41:13;15.40;;;7.67;;
7316;SDS011;3699;51.462;6.696;2023-10-08T08:43:44;18.60;;;7.97;;
7316;SDS011;3699;51.462;6.696;2023-10-08T08:46:14;17.90;;;8.17;;
7316;SDS011;3699;51.462;6.696;2023-10-08T08:48:41;19.43;;;7.83;;
7316;SDS011;3699;51.462;6.696;2023-10-08T08:51:10;19.27;;;9.40;;
7316;SDS011;3699;51.462;6.696;2023-10-08T08:53:38;27.03;;;9.67;;
7316;SDS011;3699;51.462;6.696;2023-10-08T08:56:06;17.90;;;9.53;;
7316;SDS011;3699;51.462;6.696;2023-10-08T08:58:35;16.20;;;9.30;;
7316;SDS011;3699;51.462;6.696;2023-10-08T09:01:05;19.07;;;10.33;;
7316;SDS011;3699;51.462;6.696;2023-10-08T09:03:34;17.57;;;10.00;;
7316;SDS011;3699;51.462;6.696;2023-10-08T09:06:02;21.90;;;10.93;;
7316;SDS011;3699;51.462;6.696;2023-10-08T09:08:32;20.40;;;10.03;;
7316;SDS011;3699;51.462;6.696;2023-10-08T09:11:00;21.30;;;9.60;;
7316;SDS011;3699;51.462;6.696;2023-10-08T09:13:29;24.03;;;13.10;;
7316;SDS011;3699;51.462;6.696;2023-10-08T09:15:57;21.23;;;12.13;;
7316;SDS011;3699;51.462;6.696;2023-10-08T09:18:31;17.83;;;12.50;;
7316;SDS011;3699;51.462;6.696;2023-10-08T09:21:06;18.17;;;10.90;;
7316;SDS011;3699;51.462;6.696;2023-10-08T09:23:36;16.17;;;10.10;;
7316;SDS011;3699;51.462;6.696;2023-10-08T09:26:08;13.23;;;9.10;;
7316;SDS011;3699;51.462;6.696;2023-10-08T09:28:36;21.63;;;13.20;;
7316;SDS011;3699;51.462;6.696;2023-10-08T09:31:03;19.80;;;13.97;;
7316;SDS011;3699;51.462;6.696;2023-10-08T09:33:32;22.20;;;12.63;;
7316;SDS011;3699;51.462;6.696;2023-10-08T09:35:59;21.60;;;11.97;;
7316;SDS011;3699;51.462;6.696;2023-10-08T09:38:29;25.37;;;11.83;;
7316;SDS011;3699;51.462;6.696;2023-10-08T09:40:57;29.47;;;13.03;;
7316;SDS011;3699;51.462;6.696;2023-10-08T09:43:27;23.13;;;10.57;;
7316;SDS011;3699;51.462;6.696;2023-10-08T09:45:54;19.60;;;9.53;;
7316;SDS011;3699;51.462;6.696;2023-10-08T09:48:25;21.87;;;10.30;;
7316;SDS011;3699;51.462;6.696;2023-10-08T09:50:57;22.93;;;10.20;;
7316;SDS011;3699;51.462;6.696;2023-10-08T09:53:29;18.20;;;10.67;;
7316;SDS011;3699;51.462;6.696;2023-10-08T09:56:14;18.77;;;10.63;;
7316;SDS011;3699;51.462;6.696;2023-10-08T09:58:42;18.97;;;10.70;;
7316;SDS011;3699;51.462;6.696;2023-10-08T10:01:10;19.07;;;10.63;;
7316;SDS011;3699;51.462;6.696;2023-10-08T10:03:38;18.00;;;10.20;;
7316;SDS011;3699;51.462;6.696;2023-10-08T10:06:12;15.37;;;9.37;;
7316;SDS011;3699;51.462;6.696;2023-10-08T10:08:41;24.77;;;12.37;;
7316;SDS011;3699;51.462;6.696;2023-10-08T10:11:08;22.70;;;14.00;;
7316;SDS011;3699;51.462;6.696;2023-10-08T10:13:38;27.37;;;16.00;;
7316;SDS011;3699;51.462;6.696;2023-10-08T10:16:09;33.53;;;17.60;;
7316;SDS011;3699;51.462;6.696;2023-10-08T10:18:38;28.83;;;15.07;;
7316;SDS011;3699;51.462;6.696;2023-10-08T10:23:52;20.23;;;11.60;;
7316;SDS011;3699;51.462;6.696;2023-10-08T10:26:23;30.10;;;14.67;;
7316;SDS011;3699;51.462;6.696;2023-10-08T10:31:50;23.20;;;14.03;;
7316;SDS011;3699;51.462;6.696;2023-10-08T10:34:20;24.80;;;14.43;;
7316;SDS011;3699;51.462;6.696;2023-10-08T10:36:51;26.77;;;14.57;;
7316;SDS011;3699;51.462;6.696;2023-10-08T10:39:33;31.37;;;15.33;;
7316;SDS011;3699;51.462;6.696;2023-10-08T10:42:05;28.53;;;16.27;;
7316;SDS011;3699;51.462;6.696;2023-10-08T10:44:45;24.17;;;14.30;;
7316;SDS011;3699;51.462;6.696;2023-10-08T10:47:14;27.47;;;15.47;;
7316;SDS011;3699;51.462;6.696;2023-10-08T10:50:07;25.80;;;12.93;;
7316;SDS011;3699;51.462;6.696;2023-10-08T10:52:57;23.17;;;12.93;;
7316;SDS011;3699;51.462;6.696;2023-10-08T10:55:34;26.70;;;13.87;;
7316;SDS011;3699;51.462;6.696;2023-10-08T10:58:02;22.53;;;12.83;;
7316;SDS011;3699;51.462;6.696;2023-10-08T11:00:46;22.33;;;14.10;;
7316;SDS011;3699;51.462;6.696;2023-10-08T11:03:24;18.13;;;10.90;;
7316;SDS011;3699;51.462;6.696;2023-10-08T11:05:51;18.77;;;11.37;;
7316;SDS011;3699;51.462;6.696;2023-10-08T11:08:25;22.03;;;11.73;;
7316;SDS011;3699;51.462;6.696;2023-10-08T11:10:59;22.57;;;11.30;;
7316;SDS011;3699;51.462;6.696;2023-10-08T11:13:30;23.13;;;11.43;;
7316;SDS011;3699;51.462;6.696;2023-10-08T11:16:03;21.00;;;11.83;;
7316;SDS011;3699;51.462;6.696;2023-10-08T11:18:30;20.67;;;12.20;;
7316;SDS011;3699;51.462;6.696;2023-10-08T11:21:05;23.73;;;11.37;;
7316;SDS011;3699;51.462;6.696;2023-10-08T11:23:42;26.03;;;13.63;;
7316;SDS011;3699;51.462;6.696;2023-10-08T11:26:11;19.30;;;11.07;;
7316;SDS011;3699;51.462;6.696;2023-10-08T11:28:40;22.10;;;12.50;;
7316;SDS011;3699;51.462;6.696;2023-10-08T11:31:10;22.30;;;12.83;;
7316;SDS011;3699;51.462;6.696;2023-10-08T11:33:39;21.07;;;12.63;;
7316;SDS011;3699;51.462;6.696;2023-10-08T11:36:07;21.17;;;12.40;;
7316;SDS011;3699;51.462;6.696;2023-10-08T11:38:44;18.20;;;11.40;;
7316;SDS011;3699;51.462;6.696;2023-10-08T11:41:16;16.37;;;10.00;;
7316;SDS011;3699;51.462;6.696;2023-10-08T11:43:53;14.57;;;8.93;;
7316;SDS011;3699;51.462;6.696;2023-10-08T11:46:22;16.67;;;10.17;;
7316;SDS011;3699;51.462;6.696;2023-10-08T11:48:52;14.00;;;8.30;;
7316;SDS011;3699;51.462;6.696;2023-10-08T11:51:22;17.37;;;8.27;;
7316;SDS011;3699;51.462;6.696;2023-10-08T11:53:50;11.20;;;6.83;;
7316;SDS011;3699;51.462;6.696;2023-10-08T11:56:18;11.80;;;6.67;;
7316;SDS011;3699;51.462;6.696;2023-10-08T11:58:48;9.20;;;6.00;;
7316;SDS011;3699;51.462;6.696;2023-10-08T12:01:16;11.77;;;6.67;;
7316;SDS011;3699;51.462;6.696;2023-10-08T12:03:43;10.27;;;5.30;;
7316;SDS011;3699;51.462;6.696;2023-10-08T12:06:10;9.27;;;5.70;;
7316;SDS011;3699;51.462;6.696;2023-10-08T12:08:40;9.17;;;5.30;;
7316;SDS011;3699;51.462;6.696;2023-10-08T12:11:11;9.67;;;7.10;;
7316;SDS011;3699;51.462;6.696;2023-10-08T12:13:39;12.60;;;7.50;;
7316;SDS011;3699;51.462;6.696;2023-10-08T12:16:09;11.70;;;6.87;;
7316;SDS011;3699;51.462;6.696;2023-10-08T12:18:46;8.87;;;6.57;;
7316;SDS011;3699;51.462;6.696;2023-10-08T12:21:18;10.53;;;6.37;;
7316;SDS011;3699;51.462;6.696;2023-10-08T12:23:45;11.90;;;5.57;;
7316;SDS011;3699;51.462;6.696;2023-10-08T12:26:13;9.70;;;4.87;;
7316;SDS011;3699;51.462;6.696;2023-10-08T12:28:43;7.60;;;4.97;;
7316;SDS011;3699;51.462;6.696;2023-10-08T12:31:11;9.30;;;4.37;;
7316;SDS011;3699;51.462;6.696;2023-10-08T12:33:40;8.30;;;4.03;;
7316;SDS011;3699;51.462;6.696;2023-10-08T12:36:08;12.13;;;4.27;;
7316;SDS011;3699;51.462;6.696;2023-10-08T12:38:38;6.90;;;4.33;;
7316;SDS011;3699;51.462;6.696;2023-10-08T12:41:07;8.50;;;4.70;;
7316;SDS011;3699;51.462;6.696;2023-10-08T12:43:39;6.60;;;4.63;;
7316;SDS011;3699;51.462;6.696;2023-10-08T12:46:09;8.83;;;4.17;;
7316;SDS011;3699;51.462;6.696;2023-10-08T12:48:43;9.47;;;5.47;;
7316;SDS011;3699;51.462;6.696;2023-10-08T12:51:12;7.80;;;4.53;;
7316;SDS011;3699;51.462;6.696;2023-10-08T12:53:40;11.03;;;4.73;;
7316;SDS011;3699;51.462;6.696;2023-10-08T12:56:15;8.87;;;5.03;;
7316;SDS011;3699;51.462;6.696;2023-10-08T12:58:47;12.53;;;4.70;;
7316;SDS011;3699;51.462;6.696;2023-10-08T13:01:14;6.50;;;4.87;;
7316;SDS011;3699;51.462;6.696;2023-10-08T13:03:43;11.07;;;4.50;;
7316;SDS011;3699;51.462;6.696;2023-10-08T13:06:12;9.07;;;4.53;;
7316;SDS011;3699;51.462;6.696;2023-10-08T13:08:46;10.77;;;5.70;;
7316;SDS011;3699;51.462;6.696;2023-10-08T13:11:13;7.70;;;4.27;;
7316;SDS011;3699;51.462;6.696;2023-10-08T13:13:40;7.77;;;4.17;;
7316;SDS011;3699;51.462;6.696;2023-10-08T13:16:08;7.40;;;4.33;;
7316;SDS011;3699;51.462;6.696;2023-10-08T13:18:35;9.97;;;5.00;;
7316;SDS011;3699;51.462;6.696;2023-10-08T13:21:02;15.23;;;5.50;;
7316;SDS011;3699;51.462;6.696;2023-10-08T13:23:31;9.97;;;5.20;;
7316;SDS011;3699;51.462;6.696;2023-10-08T13:26:00;12.97;;;6.00;;
7316;SDS011;3699;51.462;6.696;2023-10-08T13:28:29;13.20;;;5.63;;
7316;SDS011;3699;51.462;6.696;2023-10-08T13:30:59;9.67;;;5.20;;
7316;SDS011;3699;51.462;6.696;2023-10-08T13:33:27;5.97;;;4.10;;
7316;SDS011;3699;51.462;6.696;2023-10-08T13:35:54;8.33;;;4.63;;
7316;SDS011;3699;51.462;6.696;2023-10-08T13:38:21;10.53;;;4.87;;
7316;SDS011;3699;51.462;6.696;2023-10-08T13:40:48;8.20;;;4.47;;
7316;SDS011;3699;51.462;6.696;2023-10-08T13:43:29;8.73;;;4.70;;
7316;SDS011;3699;51.462;6.696;2023-10-08T13:46:00;8.63;;;4.50;;
7316;SDS011;3699;51.462;6.696;2023-10-08T13:48:31;12.20;;;5.23;;
7316;SDS011;3699;51.462;6.696;2023-10-08T13:50:59;9.60;;;4.93;;
7316;SDS011;3699;51.462;6.696;2023-10-08T13:53:28;9.37;;;4.73;;
7316;SDS011;3699;51.462;6.696;2023-10-08T13:55:56;9.17;;;5.43;;
7316;SDS011;3699;51.462;6.696;2023-10-08T13:58:25;10.77;;;5.27;;
7316;SDS011;3699;51.462;6.696;2023-10-08T14:00:53;9.90;;;5.97;;
7316;SDS011;3699;51.462;6.696;2023-10-08T14:03:20;12.20;;;5.77;;
7316;SDS011;3699;51.462;6.696;2023-10-08T14:05:48;10.70;;;5.07;;
7316;SDS011;3699;51.462;6.696;2023-10-08T14:08:16;7.57;;;5.20;;
7316;SDS011;3699;51.462;6.696;2023-10-08T14:10:44;8.30;;;5.13;;
7316;SDS011;3699;51.462;6.696;2023-10-08T14:13:13;9.87;;;4.80;;
7316;SDS011;3699;51.462;6.696;2023-10-08T14:15:44;8.23;;;4.80;;
7316;SDS011;3699;51.462;6.696;2023-10-08T14:18:13;8.10;;;5.10;;
7316;SDS011;3699;51.462;6.696;2023-10-08T14:20:42;10.07;;;5.57;;
7316;SDS011;3699;51.462;6.696;2023-10-08T14:23:13;7.63;;;4.83;;
7316;SDS011;3699;51.462;6.696;2023-10-08T14:25:42;11.57;;;5.50;;
7316;SDS011;3699;51.462;6.696;2023-10-08T14:28:10;10.50;;;5.57;;
7316;SDS011;3699;51.462;6.696;2023-10-08T14:30:47;9.67;;;4.90;;
7316;SDS011;3699;51.462;6.696;2023-10-08T14:33:18;9.67;;;5.70;;
7316;SDS011;3699;51.462;6.696;2023-10-08T14:35:49;12.63;;;5.87;;
7316;SDS011;3699;51.462;6.696;2023-10-08T14:38:35;12.13;;;5.53;;
7316;SDS011;3699;51.462;6.696;2023-10-08T14:41:19;11.67;;;5.83;;
7316;SDS011;3699;51.462;6.696;2023-10-08T14:44:03;9.73;;;5.87;;
7316;SDS011;3699;51.462;6.696;2023-10-08T14:46:31;11.23;;;5.70;;
7316;SDS011;3699;51.462;6.696;2023-10-08T14:49:01;9.93;;;5.97;;
7316;SDS011;3699;51.462;6.696;2023-10-08T14:51:34;7.93;;;5.53;;
7316;SDS011;3699;51.462;6.696;2023-10-08T14:54:07;8.83;;;5.63;;
7316;SDS011;3699;51.462;6.696;2023-10-08T14:56:34;12.30;;;5.93;;
7316;SDS011;3699;51.462;6.696;2023-10-08T14:59:01;8.80;;;5.20;;
7316;SDS011;3699;51.462;6.696;2023-10-08T15:01:29;9.30;;;6.43;;
7316;SDS011;3699;51.462;6.696;2023-10-08T15:03:58;15.07;;;8.10;;
7316;SDS011;3699;51.462;6.696;2023-10-08T15:06:28;17.17;;;6.63;;
7316;SDS011;3699;51.462;6.696;2023-10-08T15:08:56;9.53;;;5.13;;
7316;SDS011;3699;51.462;6.696;2023-10-08T15:11:24;16.43;;;7.40;;
7316;SDS011;3699;51.462;6.696;2023-10-08T15:13:52;11.80;;;6.27;;
7316;SDS011;3699;51.462;6.696;2023-10-08T15:16:20;10.17;;;5.90;;
7316;SDS011;3699;51.462;6.696;2023-10-08T15:18:47;8.37;;;5.13;;
7316;SDS011;3699;51.462;6.696;2023-10-08T15:21:16;8.13;;;4.80;;
7316;SDS011;3699;51.462;6.696;2023-10-08T15:23:43;8.93;;;4.40;;
7316;SDS011;3699;51.462;6.696;2023-10-08T15:26:10;13.37;;;6.57;;
7316;SDS011;3699;51.462;6.696;2023-10-08T15:28:38;8.77;;;4.77;;
7316;SDS011;3699;51.462;6.696;2023-10-08T15:31:05;9.47;;;4.73;;
7316;SDS011;3699;51.462;6.696;2023-10-08T15:33:33;10.47;;;5.70;;
7316;SDS011;3699;51.462;6.696;2023-10-08T15:35:59;13.60;;;5.67;;